sensor_id;sensor_type;location;lat;lon;timestamp;P1;durP1;ratioP1;P2;durP2;ratioP2
13171;SDS011;6651;53.200;10.432;2023-04-26T00:02:09;10.05;;;3.25;;
13171;SDS011;6651;53.200;10.432;2023-04-26T00:04:35;7.93;;;2.90;;
13171;SDS011;6651;53.200;10.432;2023-04-26T00:07:01;7.57;;;2.75;;
13171;SDS011;6651;53.200;10.432;2023-04-26T00:09:27;9.15;;;2.72;;
13171;SDS011;6651;53.200;10.432;2023-04-26T00:11:54;9.65;;;3.17;;
13171;SDS011;6651;53.200;10.432;2023-04-26T00:14:20;8.65;;;2.92;;
13171;SDS011;6651;53.200;10.432;2023-04-26T00:16:46;9.18;;;2.70;;
13171;SDS011;6651;53.200;10.432;2023-04-26T00:19:12;12.45;;;3.10;;
13171;SDS011;6651;53.200;10.432;2023-04-26T00:21:38;9.25;;;2.75;;
13171;SDS011;6651;53.200;10.432;2023-04-26T00:24:04;6.65;;;2.60;;
13171;SDS011;6651;53.200;10.432;2023-04-26T00:26:30;5.88;;;2.60;;
13171;SDS011;6651;53.200;10.432;2023-04-26T00:28:58;5.78;;;2.65;;
13171;SDS011;6651;53.200;10.432;2023-04-26T00:31:24;6.85;;;2.58;;
13171;SDS011;6651;53.200;10.432;2023-04-26T00:33:50;7.45;;;2.63;;
13171;SDS011;6651;53.200;10.432;2023-04-26T00:36:16;7.65;;;2.67;;
13171;SDS011;6651;53.200;10.432;2023-04-26T00:38:46;7.30;;;2.50;;
13171;SDS011;6651;53.200;10.432;2023-04-26T00:41:12;6.68;;;2.67;;
13171;SDS011;6651;53.200;10.432;2023-04-26T00:43:38;8.07;;;2.92;;
13171;SDS011;6651;53.200;10.432;2023-04-26T00:46:08;7.88;;;2.90;;
13171;SDS011;6651;53.200;10.432;2023-04-26T00:48:37;5.85;;;2.65;;
13171;SDS011;6651;53.200;10.432;2023-04-26T00:51:03;10.93;;;2.67;;
13171;SDS011;6651;53.200;10.432;2023-04-26T00:53:30;7.03;;;2.63;;
13171;SDS011;6651;53.200;10.432;2023-04-26T00:55:58;10.30;;;3.13;;
13171;SDS011;6651;53.200;10.432;2023-04-26T00:58:24;6.47;;;2.10;;
13171;SDS011;6651;53.200;10.432;2023-04-26T01:00:50;6.40;;;2.50;;
13171;SDS011;6651;53.200;10.432;2023-04-26T01:03:17;8.90;;;2.78;;
13171;SDS011;6651;53.200;10.432;2023-04-26T01:05:43;8.02;;;2.85;;
13171;SDS011;6651;53.200;10.432;2023-04-26T01:08:09;6.50;;;2.83;;
13171;SDS011;6651;53.200;10.432;2023-04-26T01:10:35;7.38;;;3.08;;
13171;SDS011;6651;53.200;10.432;2023-04-26T01:13:01;9.23;;;2.80;;
13171;SDS011;6651;53.200;10.432;2023-04-26T01:15:28;11.73;;;3.05;;
13171;SDS011;6651;53.200;10.432;2023-04-26T01:17:58;7.63;;;2.97;;
13171;SDS011;6651;53.200;10.432;2023-04-26T01:20:24;5.70;;;2.42;;
13171;SDS011;6651;53.200;10.432;2023-04-26T01:22:51;8.32;;;2.72;;
13171;SDS011;6651;53.200;10.432;2023-04-26T01:25:17;7.65;;;3.10;;
13171;SDS011;6651;53.200;10.432;2023-04-26T01:27:44;8.75;;;3.05;;
13171;SDS011;6651;53.200;10.432;2023-04-26T01:30:10;6.78;;;3.08;;
13171;SDS011;6651;53.200;10.432;2023-04-26T01:32:37;8.95;;;2.97;;
13171;SDS011;6651;53.200;10.432;2023-04-26T01:35:04;5.18;;;2.70;;
13171;SDS011;6651;53.200;10.432;2023-04-26T01:37:30;6.60;;;2.88;;
13171;SDS011;6651;53.200;10.432;2023-04-26T01:39:56;7.80;;;3.03;;
13171;SDS011;6651;53.200;10.432;2023-04-26T01:42:22;6.47;;;2.47;;
13171;SDS011;6651;53.200;10.432;2023-04-26T01:44:48;6.20;;;2.80;;
13171;SDS011;6651;53.200;10.432;2023-04-26T01:47:14;6.78;;;2.78;;
13171;SDS011;6651;53.200;10.432;2023-04-26T01:49:41;7.63;;;2.88;;
13171;SDS011;6651;53.200;10.432;2023-04-26T01:52:07;7.75;;;2.75;;
13171;SDS011;6651;53.200;10.432;2023-04-26T01:54:33;9.40;;;3.22;;
13171;SDS011;6651;53.200;10.432;2023-04-26T01:56:59;8.05;;;2.95;;
13171;SDS011;6651;53.200;10.432;2023-04-26T01:59:25;8.65;;;3.17;;
13171;SDS011;6651;53.200;10.432;2023-04-26T02:01:51;10.18;;;3.30;;
13171;SDS011;6651;53.200;10.432;2023-04-26T02:04:17;6.78;;;2.97;;
13171;SDS011;6651;53.200;10.432;2023-04-26T02:06:43;7.75;;;2.95;;
13171;SDS011;6651;53.200;10.432;2023-04-26T02:09:09;5.85;;;2.58;;
13171;SDS011;6651;53.200;10.432;2023-04-26T02:11:36;9.95;;;3.08;;
13171;SDS011;6651;53.200;10.432;2023-04-26T02:14:03;9.70;;;3.58;;
13171;SDS011;6651;53.200;10.432;2023-04-26T02:16:29;10.48;;;3.35;;
13171;SDS011;6651;53.200;10.432;2023-04-26T02:18:56;8.80;;;3.15;;
13171;SDS011;6651;53.200;10.432;2023-04-26T02:21:23;7.47;;;3.28;;
13171;SDS011;6651;53.200;10.432;2023-04-26T02:23:49;7.43;;;3.28;;
13171;SDS011;6651;53.200;10.432;2023-04-26T02:26:15;6.85;;;3.35;;
13171;SDS011;6651;53.200;10.432;2023-04-26T02:28:41;12.02;;;3.63;;
13171;SDS011;6651;53.200;10.432;2023-04-26T02:31:07;10.85;;;3.70;;
13171;SDS011;6651;53.200;10.432;2023-04-26T02:33:33;9.10;;;3.67;;
13171;SDS011;6651;53.200;10.432;2023-04-26T02:36:03;9.50;;;3.90;;
13171;SDS011;6651;53.200;10.432;2023-04-26T02:38:31;8.65;;;3.83;;
13171;SDS011;6651;53.200;10.432;2023-04-26T02:40:58;7.90;;;3.55;;
13171;SDS011;6651;53.200;10.432;2023-04-26T02:43:24;12.52;;;3.75;;
13171;SDS011;6651;53.200;10.432;2023-04-26T02:45:50;9.35;;;3.75;;
13171;SDS011;6651;53.200;10.432;2023-04-26T02:48:16;8.82;;;3.60;;
13171;SDS011;6651;53.200;10.432;2023-04-26T02:50:42;7.43;;;3.38;;
13171;SDS011;6651;53.200;10.432;2023-04-26T02:53:08;8.50;;;3.38;;
13171;SDS011;6651;53.200;10.432;2023-04-26T02:55:36;11.80;;;3.60;;
13171;SDS011;6651;53.200;10.432;2023-04-26T02:58:02;8.32;;;3.60;;
13171;SDS011;6651;53.200;10.432;2023-04-26T03:00:28;9.38;;;3.58;;
13171;SDS011;6651;53.200;10.432;2023-04-26T03:02:54;8.00;;;3.63;;
13171;SDS011;6651;53.200;10.432;2023-04-26T03:05:20;7.40;;;3.22;;
13171;SDS011;6651;53.200;10.432;2023-04-26T03:07:47;8.32;;;3.35;;
13171;SDS011;6651;53.200;10.432;2023-04-26T03:10:13;8.95;;;3.25;;
13171;SDS011;6651;53.200;10.432;2023-04-26T03:12:39;8.25;;;3.35;;
13171;SDS011;6651;53.200;10.432;2023-04-26T03:15:05;8.52;;;3.63;;
13171;SDS011;6651;53.200;10.432;2023-04-26T03:17:31;8.50;;;3.45;;
13171;SDS011;6651;53.200;10.432;2023-04-26T03:19:57;8.88;;;3.70;;
13171;SDS011;6651;53.200;10.432;2023-04-26T03:22:24;8.45;;;3.42;;
13171;SDS011;6651;53.200;10.432;2023-04-26T03:24:50;8.40;;;3.53;;
13171;SDS011;6651;53.200;10.432;2023-04-26T03:27:16;8.38;;;3.40;;
13171;SDS011;6651;53.200;10.432;2023-04-26T03:29:42;8.55;;;3.33;;
13171;SDS011;6651;53.200;10.432;2023-04-26T03:32:08;8.43;;;3.60;;
13171;SDS011;6651;53.200;10.432;2023-04-26T03:34:34;8.50;;;3.45;;
13171;SDS011;6651;53.200;10.432;2023-04-26T03:37:00;8.07;;;3.30;;
13171;SDS011;6651;53.200;10.432;2023-04-26T03:39:27;9.98;;;3.88;;
13171;SDS011;6651;53.200;10.432;2023-04-26T03:41:53;8.20;;;3.47;;
13171;SDS011;6651;53.200;10.432;2023-04-26T03:44:19;7.25;;;3.50;;
13171;SDS011;6651;53.200;10.432;2023-04-26T03:46:45;9.05;;;3.72;;
13171;SDS011;6651;53.200;10.432;2023-04-26T03:49:11;9.38;;;3.30;;
13171;SDS011;6651;53.200;10.432;2023-04-26T03:51:37;8.45;;;3.47;;
13171;SDS011;6651;53.200;10.432;2023-04-26T03:54:03;7.75;;;3.70;;
13171;SDS011;6651;53.200;10.432;2023-04-26T03:56:30;7.65;;;3.42;;
13171;SDS011;6651;53.200;10.432;2023-04-26T03:58:57;9.77;;;3.70;;
13171;SDS011;6651;53.200;10.432;2023-04-26T04:01:25;10.55;;;3.70;;
13171;SDS011;6651;53.200;10.432;2023-04-26T04:03:52;9.27;;;4.05;;
13171;SDS011;6651;53.200;10.432;2023-04-26T04:06:18;8.23;;;3.65;;
13171;SDS011;6651;53.200;10.432;2023-04-26T04:08:44;8.43;;;3.55;;
13171;SDS011;6651;53.200;10.432;2023-04-26T04:11:10;9.98;;;3.58;;
13171;SDS011;6651;53.200;10.432;2023-04-26T04:13:36;5.97;;;3.40;;
13171;SDS011;6651;53.200;10.432;2023-04-26T04:16:02;8.00;;;3.70;;
13171;SDS011;6651;53.200;10.432;2023-04-26T04:18:28;11.95;;;4.32;;
13171;SDS011;6651;53.200;10.432;2023-04-26T04:20:55;7.82;;;3.72;;
13171;SDS011;6651;53.200;10.432;2023-04-26T04:23:21;9.55;;;3.80;;
13171;SDS011;6651;53.200;10.432;2023-04-26T04:25:46;8.45;;;4.03;;
13171;SDS011;6651;53.200;10.432;2023-04-26T04:28:13;8.18;;;3.85;;
13171;SDS011;6651;53.200;10.432;2023-04-26T04:30:40;8.90;;;4.40;;
13171;SDS011;6651;53.200;10.432;2023-04-26T04:33:08;9.90;;;4.20;;
13171;SDS011;6651;53.200;10.432;2023-04-26T04:35:34;8.00;;;4.00;;
13171;SDS011;6651;53.200;10.432;2023-04-26T04:38:00;9.23;;;4.40;;
13171;SDS011;6651;53.200;10.432;2023-04-26T04:40:27;9.60;;;4.10;;
13171;SDS011;6651;53.200;10.432;2023-04-26T04:42:53;10.25;;;4.50;;
13171;SDS011;6651;53.200;10.432;2023-04-26T04:45:19;11.13;;;4.30;;
13171;SDS011;6651;53.200;10.432;2023-04-26T04:47:45;9.25;;;4.35;;
13171;SDS011;6651;53.200;10.432;2023-04-26T04:50:12;11.20;;;4.68;;
13171;SDS011;6651;53.200;10.432;2023-04-26T04:52:38;9.55;;;4.50;;
13171;SDS011;6651;53.200;10.432;2023-04-26T04:55:05;8.25;;;3.80;;
13171;SDS011;6651;53.200;10.432;2023-04-26T04:57:31;9.63;;;4.07;;
13171;SDS011;6651;53.200;10.432;2023-04-26T04:59:57;7.97;;;3.90;;
13171;SDS011;6651;53.200;10.432;2023-04-26T05:02:27;9.75;;;4.20;;
13171;SDS011;6651;53.200;10.432;2023-04-26T05:04:53;7.72;;;3.90;;
13171;SDS011;6651;53.200;10.432;2023-04-26T05:07:19;10.55;;;3.97;;
13171;SDS011;6651;53.200;10.432;2023-04-26T05:09:46;6.90;;;3.67;;
13171;SDS011;6651;53.200;10.432;2023-04-26T05:12:12;7.32;;;3.60;;
13171;SDS011;6651;53.200;10.432;2023-04-26T05:14:38;10.18;;;4.05;;
13171;SDS011;6651;53.200;10.432;2023-04-26T05:17:04;9.25;;;4.32;;
13171;SDS011;6651;53.200;10.432;2023-04-26T05:19:30;8.65;;;4.55;;
13171;SDS011;6651;53.200;10.432;2023-04-26T05:21:56;8.27;;;4.07;;
13171;SDS011;6651;53.200;10.432;2023-04-26T05:24:23;9.63;;;4.25;;
13171;SDS011;6651;53.200;10.432;2023-04-26T05:26:49;8.20;;;3.80;;
13171;SDS011;6651;53.200;10.432;2023-04-26T05:29:15;7.95;;;3.90;;
13171;SDS011;6651;53.200;10.432;2023-04-26T05:31:41;7.45;;;4.03;;
13171;SDS011;6651;53.200;10.432;2023-04-26T05:34:07;8.13;;;4.00;;
13171;SDS011;6651;53.200;10.432;2023-04-26T05:36:33;9.90;;;4.07;;
13171;SDS011;6651;53.200;10.432;2023-04-26T05:38:59;10.57;;;3.83;;
13171;SDS011;6651;53.200;10.432;2023-04-26T05:41:25;10.25;;;4.47;;
13171;SDS011;6651;53.200;10.432;2023-04-26T05:43:51;11.27;;;4.38;;
13171;SDS011;6651;53.200;10.432;2023-04-26T05:46:17;9.57;;;3.80;;
13171;SDS011;6651;53.200;10.432;2023-04-26T05:48:43;9.15;;;4.07;;
13171;SDS011;6651;53.200;10.432;2023-04-26T05:51:10;9.25;;;3.95;;
13171;SDS011;6651;53.200;10.432;2023-04-26T05:53:36;12.07;;;3.97;;
13171;SDS011;6651;53.200;10.432;2023-04-26T05:56:02;9.63;;;3.90;;
13171;SDS011;6651;53.200;10.432;2023-04-26T05:58:28;10.25;;;4.28;;
13171;SDS011;6651;53.200;10.432;2023-04-26T06:00:54;7.70;;;3.67;;
13171;SDS011;6651;53.200;10.432;2023-04-26T06:03:20;6.13;;;3.08;;
13171;SDS011;6651;53.200;10.432;2023-04-26T06:05:46;8.02;;;3.80;;
13171;SDS011;6651;53.200;10.432;2023-04-26T06:08:12;7.82;;;3.50;;
13171;SDS011;6651;53.200;10.432;2023-04-26T06:10:38;5.95;;;3.38;;
13171;SDS011;6651;53.200;10.432;2023-04-26T06:13:04;12.07;;;3.80;;
13171;SDS011;6651;53.200;10.432;2023-04-26T06:15:30;10.38;;;3.38;;
13171;SDS011;6651;53.200;10.432;2023-04-26T06:17:56;6.80;;;3.55;;
13171;SDS011;6651;53.200;10.432;2023-04-26T06:20:22;10.05;;;3.63;;
13171;SDS011;6651;53.200;10.432;2023-04-26T06:22:48;7.35;;;3.40;;
13171;SDS011;6651;53.200;10.432;2023-04-26T06:25:15;8.57;;;3.63;;
13171;SDS011;6651;53.200;10.432;2023-04-26T06:27:41;11.05;;;4.32;;
13171;SDS011;6651;53.200;10.432;2023-04-26T06:30:07;7.45;;;3.58;;
13171;SDS011;6651;53.200;10.432;2023-04-26T06:32:33;9.48;;;3.67;;
13171;SDS011;6651;53.200;10.432;2023-04-26T06:35:00;9.55;;;3.72;;
13171;SDS011;6651;53.200;10.432;2023-04-26T06:37:26;7.75;;;4.20;;
13171;SDS011;6651;53.200;10.432;2023-04-26T06:39:52;9.02;;;3.92;;
13171;SDS011;6651;53.200;10.432;2023-04-26T06:42:18;7.80;;;3.60;;
13171;SDS011;6651;53.200;10.432;2023-04-26T06:44:44;7.50;;;3.72;;
13171;SDS011;6651;53.200;10.432;2023-04-26T06:47:10;7.93;;;4.00;;
13171;SDS011;6651;53.200;10.432;2023-04-26T06:49:36;7.82;;;3.50;;
13171;SDS011;6651;53.200;10.432;2023-04-26T06:52:02;8.30;;;3.58;;
13171;SDS011;6651;53.200;10.432;2023-04-26T06:54:30;8.95;;;3.78;;
13171;SDS011;6651;53.200;10.432;2023-04-26T06:56:56;8.90;;;3.55;;
13171;SDS011;6651;53.200;10.432;2023-04-26T06:59:22;9.35;;;4.00;;
13171;SDS011;6651;53.200;10.432;2023-04-26T07:01:48;8.05;;;3.80;;
13171;SDS011;6651;53.200;10.432;2023-04-26T07:04:14;8.88;;;3.90;;
13171;SDS011;6651;53.200;10.432;2023-04-26T07:06:42;8.07;;;4.03;;
13171;SDS011;6651;53.200;10.432;2023-04-26T07:09:08;8.98;;;3.47;;
13171;SDS011;6651;53.200;10.432;2023-04-26T07:11:34;10.32;;;3.78;;
13171;SDS011;6651;53.200;10.432;2023-04-26T07:14:00;10.70;;;4.10;;
13171;SDS011;6651;53.200;10.432;2023-04-26T07:16:26;10.55;;;4.15;;
13171;SDS011;6651;53.200;10.432;2023-04-26T07:18:52;7.47;;;3.60;;
13171;SDS011;6651;53.200;10.432;2023-04-26T07:21:22;7.80;;;3.53;;
13171;SDS011;6651;53.200;10.432;2023-04-26T07:23:48;9.23;;;3.92;;
13171;SDS011;6651;53.200;10.432;2023-04-26T07:26:14;8.85;;;3.95;;
13171;SDS011;6651;53.200;10.432;2023-04-26T07:28:40;8.98;;;3.40;;
13171;SDS011;6651;53.200;10.432;2023-04-26T07:31:06;9.43;;;3.63;;
13171;SDS011;6651;53.200;10.432;2023-04-26T07:33:32;8.05;;;3.30;;
13171;SDS011;6651;53.200;10.432;2023-04-26T07:35:58;10.30;;;3.70;;
13171;SDS011;6651;53.200;10.432;2023-04-26T07:38:25;5.95;;;3.25;;
13171;SDS011;6651;53.200;10.432;2023-04-26T07:40:51;7.65;;;3.40;;
13171;SDS011;6651;53.200;10.432;2023-04-26T07:43:18;8.18;;;3.75;;
13171;SDS011;6651;53.200;10.432;2023-04-26T07:45:44;10.90;;;3.90;;
13171;SDS011;6651;53.200;10.432;2023-04-26T07:48:10;12.43;;;4.30;;
13171;SDS011;6651;53.200;10.432;2023-04-26T07:50:36;9.52;;;3.60;;
13171;SDS011;6651;53.200;10.432;2023-04-26T07:53:02;7.78;;;3.38;;
13171;SDS011;6651;53.200;10.432;2023-04-26T07:55:28;8.25;;;3.72;;
13171;SDS011;6651;53.200;10.432;2023-04-26T07:57:55;13.10;;;3.47;;
13171;SDS011;6651;53.200;10.432;2023-04-26T08:00:21;8.35;;;3.72;;
13171;SDS011;6651;53.200;10.432;2023-04-26T08:02:47;8.95;;;3.05;;
13171;SDS011;6651;53.200;10.432;2023-04-26T08:05:13;9.48;;;3.75;;
13171;SDS011;6651;53.200;10.432;2023-04-26T08:07:40;7.57;;;3.10;;
13171;SDS011;6651;53.200;10.432;2023-04-26T08:10:06;9.00;;;3.35;;
13171;SDS011;6651;53.200;10.432;2023-04-26T08:12:32;6.18;;;2.80;;
13171;SDS011;6651;53.200;10.432;2023-04-26T08:14:59;9.57;;;2.90;;
13171;SDS011;6651;53.200;10.432;2023-04-26T08:17:25;10.02;;;3.00;;
13171;SDS011;6651;53.200;10.432;2023-04-26T08:19:51;8.02;;;2.80;;
13171;SDS011;6651;53.200;10.432;2023-04-26T08:22:17;6.18;;;2.65;;
13171;SDS011;6651;53.200;10.432;2023-04-26T08:24:46;8.98;;;3.00;;
13171;SDS011;6651;53.200;10.432;2023-04-26T08:27:14;6.78;;;2.78;;
13171;SDS011;6651;53.200;10.432;2023-04-26T08:29:40;7.20;;;2.80;;
13171;SDS011;6651;53.200;10.432;2023-04-26T08:32:06;8.60;;;2.90;;
13171;SDS011;6651;53.200;10.432;2023-04-26T08:34:32;6.38;;;2.95;;
13171;SDS011;6651;53.200;10.432;2023-04-26T08:36:58;6.35;;;2.65;;
13171;SDS011;6651;53.200;10.432;2023-04-26T08:39:25;8.75;;;2.88;;
13171;SDS011;6651;53.200;10.432;2023-04-26T08:41:54;5.25;;;2.50;;
13171;SDS011;6651;53.200;10.432;2023-04-26T08:44:24;5.65;;;2.30;;
13171;SDS011;6651;53.200;10.432;2023-04-26T08:52:00;7.05;;;2.53;;
13171;SDS011;6651;53.200;10.432;2023-04-26T08:54:27;7.10;;;2.95;;
13171;SDS011;6651;53.200;10.432;2023-04-26T08:56:53;5.65;;;2.42;;
13171;SDS011;6651;53.200;10.432;2023-04-26T08:59:20;7.75;;;2.90;;
13171;SDS011;6651;53.200;10.432;2023-04-26T09:01:47;5.22;;;2.63;;
13171;SDS011;6651;53.200;10.432;2023-04-26T09:04:13;5.82;;;2.40;;
13171;SDS011;6651;53.200;10.432;2023-04-26T09:06:39;7.22;;;2.40;;
13171;SDS011;6651;53.200;10.432;2023-04-26T09:09:05;6.40;;;2.40;;
13171;SDS011;6651;53.200;10.432;2023-04-26T09:14:18;6.85;;;2.38;;
13171;SDS011;6651;53.200;10.432;2023-04-26T09:16:44;6.85;;;2.75;;
13171;SDS011;6651;53.200;10.432;2023-04-26T09:19:10;9.80;;;3.05;;
13171;SDS011;6651;53.200;10.432;2023-04-26T09:21:43;5.28;;;2.60;;
13171;SDS011;6651;53.200;10.432;2023-04-26T09:24:09;6.50;;;2.75;;
13171;SDS011;6651;53.200;10.432;2023-04-26T09:26:36;6.10;;;2.85;;
13171;SDS011;6651;53.200;10.432;2023-04-26T09:29:15;5.72;;;2.67;;
13171;SDS011;6651;53.200;10.432;2023-04-26T09:31:42;6.72;;;2.53;;
13171;SDS011;6651;53.200;10.432;2023-04-26T09:34:09;5.80;;;2.30;;
13171;SDS011;6651;53.200;10.432;2023-04-26T09:36:51;6.28;;;2.38;;
13171;SDS011;6651;53.200;10.432;2023-04-26T09:39:31;6.85;;;2.65;;
13171;SDS011;6651;53.200;10.432;2023-04-26T09:41:58;6.20;;;2.67;;
13171;SDS011;6651;53.200;10.432;2023-04-26T09:44:24;4.07;;;2.38;;
13171;SDS011;6651;53.200;10.432;2023-04-26T09:46:57;5.15;;;2.60;;
13171;SDS011;6651;53.200;10.432;2023-04-26T09:49:27;6.82;;;2.50;;
13171;SDS011;6651;53.200;10.432;2023-04-26T09:52:00;5.22;;;2.40;;
13171;SDS011;6651;53.200;10.432;2023-04-26T09:57:05;7.15;;;2.70;;
13171;SDS011;6651;53.200;10.432;2023-04-26T09:59:41;6.63;;;2.65;;
13171;SDS011;6651;53.200;10.432;2023-04-26T10:02:09;5.50;;;2.28;;
13171;SDS011;6651;53.200;10.432;2023-04-26T10:04:36;5.63;;;1.83;;
13171;SDS011;6651;53.200;10.432;2023-04-26T10:07:02;4.30;;;2.17;;
13171;SDS011;6651;53.200;10.432;2023-04-26T10:09:29;3.30;;;1.80;;
13171;SDS011;6651;53.200;10.432;2023-04-26T10:11:55;4.60;;;2.33;;
13171;SDS011;6651;53.200;10.432;2023-04-26T10:14:22;4.53;;;2.13;;
13171;SDS011;6651;53.200;10.432;2023-04-26T10:16:48;4.68;;;2.08;;
13171;SDS011;6651;53.200;10.432;2023-04-26T10:19:14;3.08;;;2.10;;
13171;SDS011;6651;53.200;10.432;2023-04-26T10:21:40;4.88;;;2.08;;
13171;SDS011;6651;53.200;10.432;2023-04-26T10:24:08;4.78;;;2.22;;
13171;SDS011;6651;53.200;10.432;2023-04-26T10:29:17;4.00;;;2.13;;
13171;SDS011;6651;53.200;10.432;2023-04-26T10:34:28;3.80;;;1.80;;
13171;SDS011;6651;53.200;10.432;2023-04-26T10:37:14;4.18;;;1.63;;
13171;SDS011;6651;53.200;10.432;2023-04-26T10:39:41;4.97;;;1.90;;
13171;SDS011;6651;53.200;10.432;2023-04-26T10:42:20;5.20;;;1.85;;
13171;SDS011;6651;53.200;10.432;2023-04-26T10:44:47;4.88;;;2.03;;
13171;SDS011;6651;53.200;10.432;2023-04-26T10:50:10;4.35;;;1.90;;
13171;SDS011;6651;53.200;10.432;2023-04-26T10:52:37;6.38;;;2.10;;
13171;SDS011;6651;53.200;10.432;2023-04-26T10:55:04;4.10;;;2.10;;
13171;SDS011;6651;53.200;10.432;2023-04-26T10:57:50;7.68;;;2.10;;
13171;SDS011;6651;53.200;10.432;2023-04-26T11:00:18;6.78;;;2.05;;
13171;SDS011;6651;53.200;10.432;2023-04-26T11:05:31;4.65;;;1.98;;
13171;SDS011;6651;53.200;10.432;2023-04-26T11:08:07;4.28;;;2.00;;
13171;SDS011;6651;53.200;10.432;2023-04-26T11:10:39;4.05;;;1.83;;
13171;SDS011;6651;53.200;10.432;2023-04-26T11:13:06;6.45;;;2.00;;
13171;SDS011;6651;53.200;10.432;2023-04-26T11:15:32;4.85;;;2.10;;
13171;SDS011;6651;53.200;10.432;2023-04-26T11:18:02;4.93;;;2.03;;
13171;SDS011;6651;53.200;10.432;2023-04-26T11:20:29;4.05;;;2.15;;
13171;SDS011;6651;53.200;10.432;2023-04-26T11:22:55;4.45;;;1.90;;
13171;SDS011;6651;53.200;10.432;2023-04-26T11:25:23;4.68;;;1.80;;
13171;SDS011;6651;53.200;10.432;2023-04-26T11:27:49;5.35;;;2.28;;
13171;SDS011;6651;53.200;10.432;2023-04-26T11:30:17;3.88;;;1.80;;
13171;SDS011;6651;53.200;10.432;2023-04-26T11:32:46;5.45;;;1.85;;
13171;SDS011;6651;53.200;10.432;2023-04-26T11:35:13;3.60;;;1.92;;
13171;SDS011;6651;53.200;10.432;2023-04-26T11:37:39;6.20;;;2.17;;
13171;SDS011;6651;53.200;10.432;2023-04-26T11:40:08;3.80;;;1.90;;
13171;SDS011;6651;53.200;10.432;2023-04-26T11:42:35;6.28;;;2.25;;
13171;SDS011;6651;53.200;10.432;2023-04-26T11:45:01;4.75;;;2.03;;
13171;SDS011;6651;53.200;10.432;2023-04-26T11:47:31;6.25;;;2.03;;
13171;SDS011;6651;53.200;10.432;2023-04-26T11:49:57;3.72;;;1.80;;
13171;SDS011;6651;53.200;10.432;2023-04-26T11:52:23;4.85;;;2.03;;
13171;SDS011;6651;53.200;10.432;2023-04-26T11:54:49;6.22;;;2.17;;
13171;SDS011;6651;53.200;10.432;2023-04-26T11:57:29;5.53;;;2.08;;
13171;SDS011;6651;53.200;10.432;2023-04-26T12:00:08;4.22;;;1.75;;
13171;SDS011;6651;53.200;10.432;2023-04-26T12:02:47;4.72;;;1.80;;
13171;SDS011;6651;53.200;10.432;2023-04-26T12:05:20;3.78;;;1.90;;
13171;SDS011;6651;53.200;10.432;2023-04-26T12:07:57;3.20;;;2.00;;
13171;SDS011;6651;53.200;10.432;2023-04-26T12:10:27;4.25;;;2.20;;
13171;SDS011;6651;53.200;10.432;2023-04-26T12:12:54;5.05;;;2.30;;
13171;SDS011;6651;53.200;10.432;2023-04-26T12:15:21;4.80;;;2.40;;
13171;SDS011;6651;53.200;10.432;2023-04-26T12:17:54;4.80;;;2.80;;
13171;SDS011;6651;53.200;10.432;2023-04-26T12:20:27;3.88;;;2.47;;
13171;SDS011;6651;53.200;10.432;2023-04-26T12:25:25;6.35;;;4.57;;
13171;SDS011;6651;53.200;10.432;2023-04-26T12:27:52;11.50;;;8.65;;
13171;SDS011;6651;53.200;10.432;2023-04-26T12:30:18;3.90;;;3.17;;
13171;SDS011;6651;53.200;10.432;2023-04-26T12:32:44;5.40;;;2.58;;
13171;SDS011;6651;53.200;10.432;2023-04-26T12:35:10;4.68;;;2.58;;
13171;SDS011;6651;53.200;10.432;2023-04-26T12:37:36;4.03;;;2.50;;
13171;SDS011;6651;53.200;10.432;2023-04-26T12:40:02;4.50;;;2.50;;
13171;SDS011;6651;53.200;10.432;2023-04-26T12:42:28;4.18;;;2.55;;
13171;SDS011;6651;53.200;10.432;2023-04-26T12:44:54;5.55;;;2.72;;
13171;SDS011;6651;53.200;10.432;2023-04-26T12:47:20;5.38;;;2.90;;
13171;SDS011;6651;53.200;10.432;2023-04-26T12:49:46;5.00;;;2.55;;
13171;SDS011;6651;53.200;10.432;2023-04-26T12:52:12;8.13;;;3.08;;
13171;SDS011;6651;53.200;10.432;2023-04-26T12:54:38;12.07;;;7.30;;
13171;SDS011;6651;53.200;10.432;2023-04-26T12:57:04;9.20;;;5.28;;
13171;SDS011;6651;53.200;10.432;2023-04-26T12:59:30;5.63;;;3.22;;
13171;SDS011;6651;53.200;10.432;2023-04-26T13:01:56;6.60;;;2.78;;
13171;SDS011;6651;53.200;10.432;2023-04-26T13:04:22;6.60;;;3.20;;
13171;SDS011;6651;53.200;10.432;2023-04-26T13:06:48;5.32;;;2.80;;
13171;SDS011;6651;53.200;10.432;2023-04-26T13:09:14;3.63;;;2.58;;
13171;SDS011;6651;53.200;10.432;2023-04-26T13:11:40;5.20;;;2.88;;
13171;SDS011;6651;53.200;10.432;2023-04-26T13:14:06;5.65;;;2.80;;
13171;SDS011;6651;53.200;10.432;2023-04-26T13:16:33;4.90;;;3.05;;
13171;SDS011;6651;53.200;10.432;2023-04-26T13:18:59;5.38;;;3.40;;
13171;SDS011;6651;53.200;10.432;2023-04-26T13:21:25;6.50;;;3.95;;
13171;SDS011;6651;53.200;10.432;2023-04-26T13:23:51;7.03;;;2.88;;
13171;SDS011;6651;53.200;10.432;2023-04-26T13:26:17;4.97;;;2.40;;
13171;SDS011;6651;53.200;10.432;2023-04-26T13:28:43;6.22;;;3.25;;
13171;SDS011;6651;53.200;10.432;2023-04-26T13:31:09;4.13;;;2.28;;
13171;SDS011;6651;53.200;10.432;2023-04-26T13:33:35;4.38;;;2.20;;
13171;SDS011;6651;53.200;10.432;2023-04-26T13:36:01;3.20;;;2.20;;
13171;SDS011;6651;53.200;10.432;2023-04-26T13:38:28;4.90;;;2.40;;
13171;SDS011;6651;53.200;10.432;2023-04-26T13:40:53;5.15;;;2.40;;
13171;SDS011;6651;53.200;10.432;2023-04-26T13:43:20;4.38;;;2.38;;
13171;SDS011;6651;53.200;10.432;2023-04-26T13:45:46;4.88;;;2.17;;
13171;SDS011;6651;53.200;10.432;2023-04-26T13:48:12;4.25;;;2.33;;
13171;SDS011;6651;53.200;10.432;2023-04-26T13:50:38;4.10;;;2.05;;
13171;SDS011;6651;53.200;10.432;2023-04-26T13:53:04;3.78;;;2.10;;
13171;SDS011;6651;53.200;10.432;2023-04-26T13:55:30;2.20;;;1.75;;
13171;SDS011;6651;53.200;10.432;2023-04-26T13:57:56;5.78;;;2.30;;
13171;SDS011;6651;53.200;10.432;2023-04-26T14:00:22;4.13;;;2.08;;
13171;SDS011;6651;53.200;10.432;2023-04-26T14:02:48;2.60;;;2.13;;
13171;SDS011;6651;53.200;10.432;2023-04-26T14:05:14;5.32;;;2.30;;
13171;SDS011;6651;53.200;10.432;2023-04-26T14:07:40;3.40;;;1.88;;
13171;SDS011;6651;53.200;10.432;2023-04-26T14:10:07;3.80;;;1.73;;
13171;SDS011;6651;53.200;10.432;2023-04-26T14:12:33;4.18;;;2.00;;
13171;SDS011;6651;53.200;10.432;2023-04-26T14:14:59;5.32;;;1.98;;
13171;SDS011;6651;53.200;10.432;2023-04-26T14:17:28;3.67;;;2.00;;
13171;SDS011;6651;53.200;10.432;2023-04-26T14:19:56;5.13;;;2.10;;
13171;SDS011;6651;53.200;10.432;2023-04-26T14:22:22;2.88;;;2.03;;
13171;SDS011;6651;53.200;10.432;2023-04-26T14:24:48;4.97;;;2.22;;
13171;SDS011;6651;53.200;10.432;2023-04-26T14:27:14;4.47;;;2.10;;
13171;SDS011;6651;53.200;10.432;2023-04-26T14:29:40;5.13;;;2.20;;
13171;SDS011;6651;53.200;10.432;2023-04-26T14:32:06;6.43;;;2.50;;
13171;SDS011;6651;53.200;10.432;2023-04-26T14:34:32;4.03;;;2.38;;
13171;SDS011;6651;53.200;10.432;2023-04-26T14:37:03;6.95;;;2.40;;
13171;SDS011;6651;53.200;10.432;2023-04-26T14:39:29;5.18;;;2.30;;
13171;SDS011;6651;53.200;10.432;2023-04-26T14:41:55;6.07;;;2.75;;
13171;SDS011;6651;53.200;10.432;2023-04-26T14:44:24;4.93;;;2.40;;
13171;SDS011;6651;53.200;10.432;2023-04-26T14:46:51;5.05;;;2.38;;
13171;SDS011;6651;53.200;10.432;2023-04-26T14:49:17;4.38;;;2.30;;
13171;SDS011;6651;53.200;10.432;2023-04-26T14:51:43;5.15;;;2.38;;
13171;SDS011;6651;53.200;10.432;2023-04-26T14:54:09;5.60;;;1.90;;
13171;SDS011;6651;53.200;10.432;2023-04-26T14:56:35;5.78;;;1.92;;
13171;SDS011;6651;53.200;10.432;2023-04-26T14:59:02;5.53;;;2.20;;
13171;SDS011;6651;53.200;10.432;2023-04-26T15:01:28;5.53;;;2.35;;
13171;SDS011;6651;53.200;10.432;2023-04-26T15:03:55;8.13;;;2.13;;
13171;SDS011;6651;53.200;10.432;2023-04-26T15:06:21;5.72;;;2.40;;
13171;SDS011;6651;53.200;10.432;2023-04-26T15:08:48;5.13;;;2.35;;